createdAt,value
2018-03-11T00:02:09.775Z,18.53
2018-03-11T00:04:37.383Z,18.83
2018-03-11T00:07:08.046Z,17.00
2018-03-11T00:09:35.574Z,17.53
2018-03-11T00:12:03.801Z,17.20
2018-03-11T00:14:32.627Z,17.67
2018-03-11T00:17:00.238Z,18.17
2018-03-11T00:19:27.757Z,20.77
2018-03-11T00:21:57.704Z,17.57
2018-03-11T00:24:25.889Z,18.17
2018-03-11T00:26:53.356Z,20.73
2018-03-11T00:29:20.847Z,19.97
2018-03-11T00:31:48.324Z,19.17
2018-03-11T00:34:16.550Z,19.50
2018-03-11T00:36:44.000Z,16.67
2018-03-11T00:39:11.462Z,20.70
2018-03-11T00:41:38.947Z,17.10
2018-03-11T00:44:06.420Z,18.23
2018-03-11T00:46:34.680Z,17.43
2018-03-11T00:49:02.171Z,17.50
2018-03-11T00:51:29.652Z,19.50
2018-03-11T00:53:57.124Z,20.07
2018-03-11T00:56:24.598Z,19.83
2018-03-11T00:58:52.077Z,20.70
2018-03-11T01:01:20.318Z,21.33
2018-03-11T01:03:47.792Z,22.03
2018-03-11T01:06:15.272Z,22.93
2018-03-11T01:08:43.514Z,22.73
2018-03-11T01:11:10.968Z,21.50
2018-03-11T01:13:38.461Z,22.20
2018-03-11T01:16:06.698Z,20.57
2018-03-11T01:18:34.178Z,23.90
2018-03-11T01:21:01.654Z,23.70
2018-03-11T01:23:29.893Z,26.53
2018-03-11T01:25:57.357Z,27.57
2018-03-11T01:28:24.824Z,25.57
2018-03-11T01:30:52.296Z,22.00
2018-03-11T01:33:20.542Z,21.47
2018-03-11T01:35:48.028Z,24.53
2018-03-11T01:38:16.282Z,23.10
2018-03-11T01:40:43.750Z,24.37
2018-03-11T01:43:11.985Z,25.27
2018-03-11T01:45:39.449Z,22.33
2018-03-11T01:48:06.934Z,24.33
2018-03-11T01:50:34.401Z,21.53
2018-03-11T01:53:08.770Z,22.30
2018-03-11T01:55:36.259Z,21.80
2018-03-11T01:58:03.734Z,19.13
2018-03-11T02:00:32.424Z,21.93
2018-03-11T02:03:00.666Z,24.47
2018-03-11T02:05:28.131Z,20.33
2018-03-11T02:07:55.602Z,21.97
2018-03-11T02:10:23.840Z,24.10
2018-03-11T02:12:51.315Z,22.47
2018-03-11T02:15:18.752Z,22.77
2018-03-11T02:17:46.236Z,22.87
2018-03-11T02:20:13.716Z,22.13
2018-03-11T02:22:41.957Z,26.87
2018-03-11T02:25:09.436Z,22.20
2018-03-11T02:27:37.668Z,21.47
2018-03-11T02:30:05.128Z,22.63
2018-03-11T02:32:32.613Z,26.90
2018-03-11T02:35:00.076Z,22.90
2018-03-11T02:37:27.525Z,21.23
2018-03-11T02:39:55.015Z,25.43
2018-03-11T02:42:22.469Z,23.77
2018-03-11T02:44:49.947Z,23.80
2018-03-11T02:47:17.779Z,22.37
2018-03-11T02:49:45.996Z,24.13
2018-03-11T02:52:13.477Z,21.83
2018-03-11T02:54:40.951Z,20.60
2018-03-11T02:57:08.421Z,21.17
2018-03-11T02:59:36.693Z,23.20
2018-03-11T03:02:04.192Z,25.23
2018-03-11T03:04:32.624Z,22.67
2018-03-11T03:07:00.110Z,25.13
2018-03-11T03:09:27.605Z,25.93
2018-03-11T03:11:55.072Z,27.60
2018-03-11T03:14:22.525Z,25.07
2018-03-11T03:16:49.972Z,25.07
2018-03-11T03:19:17.465Z,29.43
2018-03-11T03:21:44.944Z,29.07
2018-03-11T03:24:13.188Z,27.47
2018-03-11T03:26:40.652Z,29.67
2018-03-11T03:29:08.101Z,31.47
2018-03-11T03:31:35.565Z,30.90
2018-03-11T03:34:03.038Z,32.47
2018-03-11T03:36:31.289Z,29.60
2018-03-11T03:38:58.768Z,30.20
2018-03-11T03:41:27.026Z,31.47
2018-03-11T03:43:54.503Z,30.67
2018-03-11T03:46:22.753Z,27.83
2018-03-11T03:48:50.205Z,30.77
2018-03-11T03:51:17.686Z,29.60
2018-03-11T03:53:45.925Z,28.33
2018-03-11T03:56:13.384Z,29.97
2018-03-11T03:58:40.914Z,29.97
2018-03-11T04:01:08.381Z,29.87
2018-03-11T04:03:35.854Z,29.90
2018-03-11T04:06:03.333Z,31.10
2018-03-11T04:08:30.777Z,28.53
2018-03-11T04:10:58.237Z,24.77
2018-03-11T04:13:25.719Z,26.17
2018-03-11T04:15:53.201Z,26.50
2018-03-11T04:18:20.653Z,25.53
2018-03-11T04:20:48.134Z,27.00
2018-03-11T04:23:15.577Z,26.20
2018-03-11T04:25:43.052Z,25.73
2018-03-11T04:28:10.510Z,23.70
2018-03-11T04:30:37.974Z,23.30
2018-03-11T04:33:05.454Z,22.07
2018-03-11T04:35:32.912Z,23.43
2018-03-11T04:38:00.356Z,24.30
2018-03-11T04:40:27.845Z,24.33
2018-03-11T04:42:56.080Z,26.17
2018-03-11T04:45:23.550Z,23.20
2018-03-11T04:47:51.017Z,28.07
2018-03-11T04:50:18.514Z,24.40
2018-03-11T04:52:45.982Z,24.50
2018-03-11T04:55:13.453Z,23.93
2018-03-11T04:57:40.916Z,26.10
2018-03-11T05:00:08.368Z,27.57
2018-03-11T05:02:35.887Z,23.77
2018-03-11T05:05:03.361Z,26.40
2018-03-11T05:07:30.839Z,26.17
2018-03-11T05:09:58.328Z,24.57
2018-03-11T05:12:25.777Z,21.10
2018-03-11T05:14:53.277Z,23.07
2018-03-11T05:17:20.726Z,23.27
2018-03-11T05:19:48.180Z,23.13
2018-03-11T05:22:15.639Z,27.20
2018-03-11T05:24:43.095Z,24.30
2018-03-11T05:27:10.553Z,24.13
2018-03-11T05:29:38.001Z,24.03
2018-03-11T05:32:06.254Z,26.20
2018-03-11T05:34:33.706Z,24.50
2018-03-11T05:37:01.191Z,25.47
2018-03-11T05:39:29.447Z,26.07
2018-03-11T05:41:56.899Z,25.97
2018-03-11T05:44:24.391Z,26.93
2018-03-11T05:46:51.866Z,25.53
2018-03-11T05:49:19.347Z,25.73
2018-03-11T05:51:46.821Z,26.83
2018-03-11T05:54:14.274Z,24.93
2018-03-11T05:56:41.790Z,27.30
2018-03-11T05:59:09.226Z,24.70
2018-03-11T06:01:36.705Z,24.20
2018-03-11T06:04:04.168Z,26.47
2018-03-11T06:06:31.635Z,27.77
2018-03-11T06:08:59.101Z,24.93
2018-03-11T06:11:26.584Z,24.93
2018-03-11T06:13:54.051Z,26.93
2018-03-11T06:16:22.286Z,26.97
2018-03-11T06:18:49.764Z,26.20
2018-03-11T06:21:18.290Z,27.27
2018-03-11T06:23:45.849Z,24.60
2018-03-11T06:26:19.178Z,27.93
2018-03-11T06:28:46.640Z,28.53
2018-03-11T06:31:14.122Z,25.60
2018-03-11T06:33:42.706Z,26.63
2018-03-11T06:36:10.245Z,26.70
2018-03-11T06:38:37.770Z,29.47
2018-03-11T06:41:05.251Z,25.97
2018-03-11T06:43:32.717Z,24.47
2018-03-11T06:46:00.177Z,26.17
2018-03-11T06:48:27.662Z,24.40
2018-03-11T06:50:55.890Z,23.07
2018-03-11T06:53:23.362Z,21.87
2018-03-11T06:55:50.883Z,24.87
2018-03-11T06:58:18.366Z,22.73
2018-03-11T07:00:45.895Z,23.07
2018-03-11T07:03:13.360Z,24.67
2018-03-11T07:05:40.886Z,23.23
2018-03-11T07:08:09.118Z,24.97
2018-03-11T07:10:36.631Z,37.50
2018-03-11T07:13:04.103Z,28.83
2018-03-11T07:15:31.598Z,39.23
2018-03-11T07:17:59.054Z,35.80
2018-03-11T07:20:26.530Z,31.97
2018-03-11T07:22:53.993Z,30.87
2018-03-11T07:25:22.233Z,29.60
2018-03-11T07:27:49.716Z,34.70
2018-03-11T07:30:17.199Z,28.07
2018-03-11T07:32:44.681Z,25.27
2018-03-11T07:35:12.128Z,24.30
2018-03-11T07:37:39.601Z,24.50
2018-03-11T07:40:07.090Z,23.43
2018-03-11T07:42:34.551Z,22.83
2018-03-11T07:45:02.037Z,22.57
2018-03-11T07:47:30.296Z,20.27
2018-03-11T07:49:58.513Z,21.80
2018-03-11T07:52:25.964Z,18.17
2018-03-11T07:54:53.430Z,18.97
2018-03-11T07:57:20.904Z,17.57
2018-03-11T07:59:48.366Z,16.50
2018-03-11T08:02:15.869Z,15.47
2018-03-11T08:04:44.083Z,18.13
2018-03-11T08:07:11.552Z,15.17
2018-03-11T08:09:39.036Z,20.63
2018-03-11T08:12:06.501Z,18.10
2018-03-11T08:14:34.761Z,17.13
2018-03-11T08:17:02.306Z,16.50
2018-03-11T08:19:29.753Z,17.17
2018-03-11T08:21:57.238Z,17.97
2018-03-11T08:24:24.729Z,15.47
2018-03-11T08:26:52.203Z,16.10
2018-03-11T08:29:19.687Z,16.23
2018-03-11T08:31:47.166Z,16.47
2018-03-11T08:34:14.637Z,16.70
2018-03-11T08:36:42.877Z,16.77
2018-03-11T08:39:10.337Z,12.73
2018-03-11T08:41:37.825Z,13.73
2018-03-11T08:44:06.050Z,15.33
2018-03-11T08:46:34.324Z,14.50
2018-03-11T08:49:01.819Z,12.70
2018-03-11T08:51:29.289Z,13.37
2018-03-11T08:53:56.802Z,14.13
2018-03-11T08:58:58.073Z,16.73
2018-03-11T09:01:25.568Z,14.97
2018-03-11T09:03:53.781Z,15.60
2018-03-11T09:06:21.256Z,13.67
2018-03-11T09:08:49.442Z,11.70
2018-03-11T09:11:16.905Z,11.83
2018-03-11T09:13:44.461Z,11.30
2018-03-11T09:16:11.974Z,12.03
2018-03-11T09:18:39.421Z,11.90
2018-03-11T09:21:07.910Z,8.63
2018-03-11T09:23:35.350Z,10.67
2018-03-11T09:26:02.928Z,8.73
2018-03-11T09:28:30.387Z,9.30
2018-03-11T09:30:57.851Z,9.90
2018-03-11T09:33:25.332Z,10.17
2018-03-11T09:35:52.789Z,7.93
2018-03-11T09:38:20.288Z,8.67
2018-03-11T09:40:48.562Z,10.20
2018-03-11T09:43:16.011Z,6.70
2018-03-11T09:45:44.247Z,7.47
2018-03-11T09:48:11.706Z,9.60
2018-03-11T09:50:39.168Z,8.50
2018-03-11T09:53:06.650Z,5.93
2018-03-11T09:55:34.879Z,5.70
2018-03-11T09:58:02.346Z,7.63
2018-03-11T10:00:29.829Z,4.37
2018-03-11T10:02:57.312Z,8.23
2018-03-11T10:05:25.532Z,4.53
2018-03-11T10:07:53.024Z,5.13
2018-03-11T10:10:20.522Z,7.03
2018-03-11T10:12:48.663Z,5.10
2018-03-11T10:15:16.969Z,5.50
2018-03-11T10:17:44.457Z,5.97
2018-03-11T10:20:11.957Z,3.13
2018-03-11T10:22:40.197Z,4.47
2018-03-11T10:25:07.701Z,3.50
2018-03-11T10:27:35.195Z,3.53
2018-03-11T10:30:02.713Z,3.80
2018-03-11T10:32:30.975Z,3.90
2018-03-11T10:34:59.213Z,3.10
2018-03-11T10:37:26.722Z,2.67
2018-03-11T10:39:54.242Z,3.17
2018-03-11T10:42:21.724Z,3.07
2018-03-11T10:44:49.219Z,1.67
2018-03-11T10:47:16.791Z,2.87
2018-03-11T10:49:44.316Z,2.90
2018-03-11T10:52:11.868Z,3.20
2018-03-11T10:54:40.114Z,1.97
2018-03-11T10:57:07.651Z,2.27
2018-03-11T10:59:35.166Z,3.43
2018-03-11T11:02:08.330Z,1.47
2018-03-11T11:04:41.404Z,2.83
2018-03-11T11:07:09.993Z,1.70
2018-03-11T11:09:38.311Z,3.10
2018-03-11T11:12:05.814Z,1.30
2018-03-11T11:14:35.178Z,1.77
2018-03-11T11:17:02.746Z,3.50
2018-03-11T11:19:30.308Z,1.50
2018-03-11T11:21:57.927Z,2.20
2018-03-11T11:24:25.464Z,1.67
2018-03-11T11:26:53.711Z,1.77
2018-03-11T11:29:21.201Z,2.50
2018-03-11T11:31:48.759Z,1.97
2018-03-11T11:34:16.583Z,1.63
2018-03-11T11:36:45.393Z,2.87
2018-03-11T11:39:15.408Z,1.80
2018-03-11T11:41:42.914Z,5.27
2018-03-11T11:44:11.490Z,2.60
2018-03-11T11:46:39.077Z,4.50
2018-03-11T11:49:06.656Z,1.50
2018-03-11T11:51:34.579Z,1.70
2018-03-11T11:54:02.308Z,1.80
2018-03-11T11:56:29.807Z,3.63
2018-03-11T11:58:58.072Z,2.00
2018-03-11T12:01:26.349Z,1.63
2018-03-11T12:03:54.624Z,1.87
2018-03-11T12:06:22.912Z,2.40
2018-03-11T12:08:50.390Z,3.07
2018-03-11T12:11:17.891Z,2.83
2018-03-11T12:13:45.425Z,1.37
2018-03-11T12:16:13.069Z,1.27
2018-03-11T12:18:40.603Z,1.10
2018-03-11T12:21:08.102Z,2.07
2018-03-11T12:23:35.716Z,2.00
2018-03-11T12:26:03.224Z,3.80
2018-03-11T12:28:30.731Z,1.73
2018-03-11T12:30:59.975Z,1.63
2018-03-11T12:33:27.452Z,1.60
2018-03-11T12:35:54.963Z,1.40
2018-03-11T12:38:22.498Z,1.40
2018-03-11T12:40:50.846Z,1.30
2018-03-11T12:43:18.414Z,1.43
2018-03-11T12:45:47.169Z,1.17
2018-03-11T12:48:14.668Z,1.30
2018-03-11T12:50:43.419Z,1.50
2018-03-11T12:53:10.929Z,3.17
2018-03-11T12:55:39.195Z,1.67
2018-03-11T12:58:07.499Z,2.13
2018-03-11T13:00:35.012Z,1.90
2018-03-11T13:03:02.533Z,1.70
2018-03-11T13:05:30.041Z,1.37
2018-03-11T13:07:58.644Z,2.43
2018-03-11T13:10:26.151Z,3.50
2018-03-11T13:12:53.688Z,2.97
2018-03-11T13:15:21.201Z,1.40
2018-03-11T13:17:50.158Z,1.50
2018-03-11T13:20:29.503Z,2.57
2018-03-11T13:22:57.754Z,1.57
2018-03-11T13:25:25.268Z,2.80
2018-03-11T13:28:05.342Z,1.77
2018-03-11T13:30:32.806Z,2.33
2018-03-11T13:33:12.042Z,1.23
2018-03-11T13:35:40.277Z,2.10
2018-03-11T13:38:19.647Z,1.37
2018-03-11T13:40:47.949Z,1.50
2018-03-11T13:43:15.481Z,5.73
2018-03-11T13:45:54.863Z,1.03
2018-03-11T13:48:23.225Z,1.13
2018-03-11T13:50:51.509Z,2.17
2018-03-11T13:53:30.863Z,1.57
2018-03-11T13:55:59.187Z,2.20
2018-03-11T13:58:38.614Z,3.47
2018-03-11T14:01:06.103Z,1.40
2018-03-11T14:03:33.633Z,1.60
2018-03-11T14:06:01.126Z,1.20
2018-03-11T14:08:30.080Z,3.33
2018-03-11T14:10:57.613Z,3.20
2018-03-11T14:13:25.880Z,3.27
2018-03-11T14:15:54.164Z,2.03
2018-03-11T14:18:22.442Z,1.27
2018-03-11T14:20:50.695Z,1.20
2018-03-11T14:23:18.176Z,2.83
2018-03-11T14:25:46.876Z,1.47
2018-03-11T14:28:15.488Z,2.63
2018-03-11T14:30:43.106Z,2.07
2018-03-11T14:33:11.962Z,1.93
2018-03-11T14:35:41.234Z,2.70
2018-03-11T14:38:08.750Z,1.60
2018-03-11T14:40:36.995Z,1.20
2018-03-11T14:43:04.514Z,2.47
2018-03-11T14:45:32.461Z,1.57
2018-03-11T14:47:59.969Z,1.83
2018-03-11T14:50:28.036Z,2.00
2018-03-11T14:52:56.507Z,1.10
2018-03-11T14:55:24.051Z,2.77
2018-03-11T14:57:51.538Z,1.67
2018-03-11T15:00:19.787Z,11.83
2018-03-11T15:02:47.274Z,1.60
2018-03-11T15:05:14.755Z,1.27
2018-03-11T15:07:44.395Z,1.40
2018-03-11T15:10:11.949Z,1.70
2018-03-11T15:12:39.825Z,1.50
2018-03-11T15:15:07.960Z,2.07
2018-03-11T15:17:36.256Z,2.33
2018-03-11T15:20:04.591Z,1.83
2018-03-11T15:22:32.189Z,2.57
2018-03-11T15:24:59.776Z,2.57
2018-03-11T15:27:27.355Z,2.10
2018-03-11T15:29:54.886Z,2.23
2018-03-11T15:32:22.390Z,4.33
2018-03-11T15:34:50.690Z,2.67
2018-03-11T15:37:19.049Z,2.23
2018-03-11T15:39:46.570Z,4.03
2018-03-11T15:42:14.115Z,2.37
2018-03-11T15:44:41.810Z,2.67
2018-03-11T15:47:10.972Z,2.53
2018-03-11T15:49:39.377Z,2.13
2018-03-11T15:52:06.953Z,2.03
2018-03-11T15:54:35.244Z,3.40
2018-03-11T15:57:03.528Z,2.60
2018-03-11T15:59:31.820Z,4.27
2018-03-11T16:01:59.347Z,2.20
2018-03-11T16:04:27.868Z,2.20
2018-03-11T16:06:56.305Z,2.07
2018-03-11T16:09:23.823Z,2.43
2018-03-11T16:11:51.442Z,3.07
2018-03-11T16:14:19.597Z,2.30
2018-03-11T16:16:48.831Z,2.13
2018-03-11T16:19:17.452Z,2.40
2018-03-11T16:21:44.980Z,2.97
2018-03-11T16:24:12.952Z,3.40
2018-03-11T16:26:41.167Z,4.13
2018-03-11T16:29:08.965Z,2.53
2018-03-11T16:31:37.837Z,3.47
2018-03-11T16:34:05.343Z,6.83
2018-03-11T16:36:32.833Z,2.30
2018-03-11T16:39:01.198Z,4.10
2018-03-11T16:41:29.379Z,4.73
2018-03-11T16:43:56.907Z,1.90
2018-03-11T16:46:24.918Z,2.33
2018-03-11T16:48:53.444Z,2.00
2018-03-11T16:51:21.651Z,4.03
2018-03-11T16:53:49.882Z,3.40
2018-03-11T16:56:18.159Z,3.83
2018-03-11T16:58:46.444Z,2.37
2018-03-11T17:01:14.839Z,2.47
2018-03-11T17:03:42.803Z,2.13
2018-03-11T17:06:10.324Z,2.67
2018-03-11T17:08:38.603Z,3.67
2018-03-11T17:11:06.902Z,3.17
2018-03-11T17:13:34.415Z,2.60
2018-03-11T17:16:01.918Z,3.23
2018-03-11T17:18:29.801Z,2.80
2018-03-11T17:21:01.027Z,2.53
2018-03-11T17:23:28.507Z,2.93
2018-03-11T17:25:57.026Z,2.87
2018-03-11T17:28:27.851Z,3.73
2018-03-11T17:30:55.369Z,2.87
2018-03-11T17:33:23.794Z,3.00
2018-03-11T17:35:52.172Z,3.73
2018-03-11T17:38:19.666Z,3.30
2018-03-11T17:40:47.997Z,3.10
2018-03-11T17:43:16.194Z,3.57
2018-03-11T17:45:45.198Z,3.97
2018-03-11T17:48:12.738Z,3.53
2018-03-11T17:50:40.289Z,3.63
2018-03-11T17:53:08.119Z,2.73
2018-03-11T17:55:35.646Z,2.90
2018-03-11T17:58:03.450Z,3.30
2018-03-11T18:00:30.958Z,2.57
2018-03-11T18:02:58.510Z,7.70
2018-03-11T18:05:25.983Z,3.23
2018-03-11T18:07:54.331Z,3.83
2018-03-11T18:10:22.384Z,5.10
2018-03-11T18:12:49.889Z,2.60
2018-03-11T18:15:19.232Z,3.63
2018-03-11T18:17:48.082Z,4.00
2018-03-11T18:20:19.317Z,3.00
2018-03-11T18:22:47.595Z,3.83
2018-03-11T18:25:15.905Z,3.10
2018-03-11T18:27:45.130Z,3.03
2018-03-11T18:30:14.218Z,3.57
2018-03-11T18:32:42.651Z,3.37
2018-03-11T18:35:10.982Z,2.63
2018-03-11T18:37:42.809Z,3.67
2018-03-11T18:40:10.324Z,4.13
2018-03-11T18:42:38.591Z,5.20
2018-03-11T18:45:06.123Z,4.97
2018-03-11T18:47:37.030Z,2.97
2018-03-11T18:50:07.009Z,3.70
2018-03-11T18:52:34.492Z,4.00
2018-03-11T18:55:02.783Z,4.33
2018-03-11T18:57:31.875Z,4.10
2018-03-11T19:00:02.263Z,10.20
2018-03-11T19:02:29.769Z,7.60
2018-03-11T19:04:57.274Z,8.67
2018-03-11T19:07:25.388Z,6.50
2018-03-11T19:09:53.790Z,7.67
2018-03-11T19:12:21.370Z,7.03
2018-03-11T19:14:49.557Z,4.40
2018-03-11T19:17:22.509Z,7.50
2018-03-11T19:19:51.305Z,7.80
2018-03-11T19:22:20.269Z,5.30
2018-03-11T19:24:49.699Z,5.70
2018-03-11T19:27:17.692Z,7.77
2018-03-11T19:29:45.206Z,6.43
2018-03-11T19:32:13.456Z,5.23
2018-03-11T19:34:41.967Z,4.53
2018-03-11T19:37:09.552Z,6.83
2018-03-11T19:39:38.424Z,6.87
2018-03-11T19:42:06.026Z,6.37
2018-03-11T19:44:36.909Z,5.23
2018-03-11T19:47:05.448Z,7.10
2018-03-11T19:49:33.572Z,5.60
2018-03-11T19:52:01.174Z,6.60
2018-03-11T19:54:30.023Z,8.17
2018-03-11T19:56:58.686Z,6.50
2018-03-11T19:59:27.904Z,6.73
2018-03-11T20:01:59.148Z,6.37
2018-03-11T20:04:26.709Z,8.03
2018-03-11T20:06:58.209Z,7.47
2018-03-11T20:09:26.023Z,5.67
2018-03-11T20:11:54.392Z,4.90
2018-03-11T20:14:22.533Z,6.00
2018-03-11T20:16:53.184Z,6.00
2018-03-11T20:19:21.710Z,4.83
2018-03-11T20:21:49.263Z,5.30
2018-03-11T20:24:17.494Z,6.73
2018-03-11T20:26:45.032Z,6.90
2018-03-11T20:29:12.579Z,5.27
2018-03-11T20:31:41.915Z,7.77
2018-03-11T20:34:09.965Z,8.03
2018-03-11T20:36:38.324Z,6.73
2018-03-11T20:39:08.302Z,8.23
2018-03-11T20:41:35.851Z,4.87
2018-03-11T20:44:06.167Z,5.63
2018-03-11T20:46:36.192Z,6.03
2018-03-11T20:49:06.169Z,6.97
2018-03-11T20:51:35.948Z,21.67
2018-03-11T20:54:04.588Z,5.23
2018-03-11T20:56:32.890Z,4.53
2018-03-11T20:59:01.088Z,5.43
2018-03-11T21:01:32.008Z,4.30
2018-03-11T21:04:00.682Z,5.40
2018-03-11T21:06:28.750Z,4.33
2018-03-11T21:08:57.147Z,6.10
2018-03-11T21:11:25.913Z,6.23
2018-03-11T21:13:53.578Z,6.53
2018-03-11T21:16:22.294Z,4.93
2018-03-11T21:18:49.835Z,5.93
2018-03-11T21:21:17.839Z,4.20
2018-03-11T21:23:45.379Z,7.17
2018-03-11T21:26:14.291Z,4.57
2018-03-11T21:28:41.880Z,7.07
2018-03-11T21:31:10.013Z,4.67
2018-03-11T21:33:37.547Z,4.93
2018-03-11T21:36:07.010Z,6.10
2018-03-11T21:38:34.815Z,5.03
2018-03-11T21:41:04.497Z,5.20
2018-03-11T21:43:33.021Z,6.73
2018-03-11T21:46:01.925Z,6.47
2018-03-11T21:48:35.047Z,5.40
2018-03-11T21:51:03.300Z,4.57
2018-03-11T21:53:31.662Z,4.57
2018-03-11T21:55:59.756Z,7.63
2018-03-11T21:58:30.092Z,6.87
2018-03-11T22:00:59.731Z,5.30
2018-03-11T22:03:27.346Z,5.97
2018-03-11T22:05:55.052Z,5.27
2018-03-11T22:08:22.568Z,6.07
2018-03-11T22:10:52.647Z,6.97
2018-03-11T22:13:20.970Z,6.50
2018-03-11T22:15:48.479Z,5.60
2018-03-11T22:18:17.428Z,4.70
2018-03-11T22:20:44.955Z,7.03
2018-03-11T22:23:13.266Z,4.90
2018-03-11T22:25:40.833Z,6.27
2018-03-11T22:28:08.405Z,4.30
2018-03-11T22:30:35.882Z,5.23
2018-03-11T22:33:03.365Z,4.27
2018-03-11T22:35:30.854Z,5.73
2018-03-11T22:37:58.399Z,8.50
2018-03-11T22:40:26.692Z,6.97
2018-03-11T22:42:54.201Z,5.63
2018-03-11T22:45:21.699Z,6.73
2018-03-11T22:47:50.053Z,4.23
2018-03-11T22:50:17.547Z,5.70
2018-03-11T22:52:45.836Z,6.13
2018-03-11T22:55:13.289Z,7.67
2018-03-11T22:57:40.769Z,4.90
2018-03-11T23:00:08.269Z,8.47
2018-03-11T23:02:36.528Z,7.30
2018-03-11T23:05:03.980Z,5.20
2018-03-11T23:07:31.461Z,4.87
2018-03-11T23:09:59.720Z,4.43
2018-03-11T23:12:27.975Z,5.50
2018-03-11T23:14:55.441Z,9.10
2018-03-11T23:17:22.913Z,5.87
2018-03-11T23:19:51.134Z,5.70
2018-03-11T23:22:18.612Z,4.63
2018-03-11T23:24:46.077Z,4.07
2018-03-11T23:27:13.529Z,5.57
2018-03-11T23:29:41.009Z,4.33
2018-03-11T23:32:08.469Z,7.07
2018-03-11T23:34:35.917Z,4.37
2018-03-11T23:37:03.409Z,6.70
2018-03-11T23:39:30.859Z,4.90
2018-03-11T23:41:58.341Z,5.00
2018-03-11T23:44:25.818Z,5.17
2018-03-11T23:46:53.980Z,6.10
2018-03-11T23:49:21.486Z,5.03
2018-03-11T23:51:48.989Z,5.33
2018-03-11T23:54:16.500Z,6.17
2018-03-11T23:56:43.953Z,5.63
2018-03-11T23:59:11.403Z,5.37
